Time;durP1;ratioP1;P1;durP2;ratioP2;P2;SDS_P1;SDS_P2;PMS_P1;PMS_P2;Temp;Humidity;BMP_temperature;BMP_pressure;BME280_temperature;BME280_humidity;BME280_pressure;Samples;Min_cycle;Max_cycle;Signal;HPM_P1;HPM_P2
2023/08/07 00:00:47;;;;;;;5.82;1.40;;;16.10;84.50;;;;;;5055061;28;20357;-65
2023/08/07 00:03:18;;;;;;;5.45;1.50;;;16.10;84.50;;;;;;5056989;28;20025;-65
2023/08/07 00:05:46;;;;;;;8.55;1.60;;;16.10;84.50;;;;;;5044513;28;20029;-65
2023/08/07 00:08:12;;;;;;;5.47;1.60;;;16.10;84.50;;;;;;5055426;28;20035;-65
2023/08/07 00:10:37;;;;;;;5.55;1.50;;;16.10;84.60;;;;;;5054648;28;20470;-65
2023/08/07 00:13:03;;;;;;;6.25;1.90;;;16.00;84.60;;;;;;5046343;28;20410;-65
2023/08/07 00:15:29;;;;;;;3.13;1.20;;;16.10;84.60;;;;;;5054512;28;20067;-65
2023/08/07 00:17:55;;;;;;;4.30;1.33;;;16.10;84.60;;;;;;5056841;28;20364;-65
2023/08/07 00:20:21;;;;;;;4.82;1.70;;;16.10;84.60;;;;;;5048748;28;20129;-65
2023/08/07 00:22:47;;;;;;;5.78;1.80;;;16.10;84.60;;;;;;5045878;28;20037;-65
2023/08/07 00:25:13;;;;;;;3.78;1.25;;;16.10;84.60;;;;;;5052608;28;20591;-65
2023/08/07 00:27:38;;;;;;;4.35;1.40;;;16.10;84.60;;;;;;5055147;28;20399;-65
2023/08/07 00:30:05;;;;;;;7.07;1.38;;;16.00;84.60;;;;;;5055505;28;20068;-65
2023/08/07 00:32:30;;;;;;;2.13;0.70;;;16.00;84.70;;;;;;5055596;28;20056;-65
2023/08/07 00:34:56;;;;;;;4.43;1.08;;;16.00;84.80;;;;;;5051258;28;20033;-65
2023/08/07 00:37:22;;;;;;;4.07;1.20;;;16.00;84.80;;;;;;5053669;28;20034;-65
2023/08/07 00:39:48;;;;;;;5.60;1.55;;;16.00;84.80;;;;;;5055348;28;20094;-65
2023/08/07 00:42:13;;;;;;;4.15;1.25;;;16.00;84.80;;;;;;5055575;28;20029;-65
2023/08/07 00:44:39;;;;;;;3.00;1.30;;;16.00;84.80;;;;;;5055208;28;20040;-65
2023/08/07 00:47:06;;;;;;;2.95;1.02;;;16.00;84.80;;;;;;5053643;28;20025;-65
2023/08/07 00:49:32;;;;;;;4.90;1.40;;;15.90;84.80;;;;;;5054334;28;20091;-65
2023/08/07 00:51:59;;;;;;;6.25;1.67;;;16.00;84.80;;;;;;5054453;28;20401;-65
2023/08/07 00:54:25;;;;;;;3.53;1.25;;;15.90;84.90;;;;;;5043707;28;20037;-65
2023/08/07 00:56:51;;;;;;;4.53;1.42;;;15.90;84.90;;;;;;5048323;28;20116;-65
2023/08/07 00:59:18;;;;;;;3.17;1.20;;;15.90;84.80;;;;;;5054972;28;20037;-65
2023/08/07 01:01:44;;;;;;;5.18;1.30;;;15.90;84.90;;;;;;5052867;28;20029;-65
2023/08/07 01:04:11;;;;;;;5.95;1.45;;;15.90;84.90;;;;;;5053851;28;20028;-65
2023/08/07 01:06:36;;;;;;;5.53;1.80;;;16.00;84.90;;;;;;5049958;28;20031;-65
2023/08/07 01:09:02;;;;;;;3.10;1.30;;;16.00;84.80;;;;;;5050841;28;20104;-65
2023/08/07 01:11:50;;;;;;;5.68;1.52;;;16.00;84.80;;;;;;5037409;28;20021;-65
2023/08/07 01:14:30;;;;;;;4.65;1.55;;;16.00;84.70;;;;;;5053138;28;20067;-65
2023/08/07 01:17:17;;;;;;;3.75;1.35;;;16.00;84.70;;;;;;5046582;28;20056;-65
2023/08/07 01:19:44;;;;;;;6.18;1.58;;;16.00;84.50;;;;;;5041452;28;20041;-65
2023/08/07 01:22:13;;;;;;;6.93;1.63;;;15.90;84.60;;;;;;5051499;28;20040;-65
2023/08/07 01:24:41;;;;;;;7.28;1.85;;;15.90;84.60;;;;;;5048537;28;20036;-65
2023/08/07 01:27:19;;;;;;;6.40;1.90;;;15.90;84.50;;;;;;5050319;28;20042;-65
2023/08/07 01:30:03;;;;;;;5.13;1.25;;;15.90;84.60;;;;;;5038985;28;20039;-65
2023/08/07 01:32:38;;;;;;;7.13;1.77;;;15.90;84.50;;;;;;5048825;28;20733;-65
2023/08/07 01:35:08;;;;;;;6.00;1.60;;;15.90;84.40;;;;;;5055054;28;20028;-65
2023/08/07 01:37:38;;;;;;;8.13;2.17;;;15.90;84.40;;;;;;5044717;28;20041;-65
2023/08/07 01:40:05;;;;;;;6.15;1.90;;;15.90;84.40;;;;;;5044897;28;20347;-65
2023/08/07 01:42:32;;;;;;;5.45;1.50;;;15.90;84.40;;;;;;5054527;28;20025;-65
2023/08/07 01:44:58;;;;;;;8.73;2.00;;;15.90;84.40;;;;;;5042009;28;20116;-65
2023/08/07 01:47:24;;;;;;;8.27;1.85;;;15.90;84.40;;;;;;5052835;28;20060;-65
2023/08/07 01:49:49;;;;;;;7.78;1.95;;;15.90;84.40;;;;;;5052766;28;20033;-65
2023/08/07 01:52:15;;;;;;;7.93;2.28;;;15.90;84.30;;;;;;5053212;28;20024;-65
2023/08/07 01:54:41;;;;;;;9.10;2.40;;;15.90;84.30;;;;;;5044457;28;20454;-65
2023/08/07 01:57:07;;;;;;;6.40;2.13;;;15.90;84.30;;;;;;5047863;28;20048;-65
2023/08/07 01:59:32;;;;;;;9.07;2.10;;;15.90;84.30;;;;;;5028846;28;20025;-65
2023/08/07 02:01:58;;;;;;;7.18;2.15;;;15.90;84.30;;;;;;5047683;28;20021;-65
2023/08/07 02:04:24;;;;;;;7.28;2.13;;;15.90;84.30;;;;;;5046903;28;20051;-65
2023/08/07 02:06:50;;;;;;;10.02;2.42;;;15.90;84.20;;;;;;5050868;28;20028;-65
2023/08/07 02:09:15;;;;;;;8.55;2.13;;;16.00;84.30;;;;;;5030912;28;20028;-65
2023/08/07 02:11:42;;;;;;;7.43;2.38;;;16.00;84.30;;;;;;5038900;28;20025;-65
2023/08/07 02:14:08;;;;;;;7.10;2.25;;;15.90;84.20;;;;;;5042372;28;20151;-65
2023/08/07 02:16:34;;;;;;;9.23;2.55;;;15.90;84.20;;;;;;5036291;28;20112;-65
2023/08/07 02:18:59;;;;;;;11.02;2.58;;;16.00;84.30;;;;;;5044684;28;20437;-65
2023/08/07 02:21:25;;;;;;;8.52;2.35;;;16.00;84.90;;;;;;5048028;28;20041;-65
2023/08/07 02:23:51;;;;;;;9.55;2.70;;;16.00;84.30;;;;;;5036063;28;20043;-65
2023/08/07 02:26:17;;;;;;;8.05;2.15;;;16.00;84.20;;;;;;5047322;28;20048;-65
2023/08/07 02:28:42;;;;;;;10.32;2.30;;;15.90;84.20;;;;;;5050063;28;20022;-65
2023/08/07 02:31:08;;;;;;;7.00;2.47;;;15.90;84.30;;;;;;5044137;28;20029;-65
2023/08/07 02:33:34;;;;;;;8.65;2.58;;;16.00;84.40;;;;;;5044575;28;20048;-65
2023/08/07 02:35:59;;;;;;;8.30;2.53;;;16.00;84.30;;;;;;5045150;28;20119;-65
2023/08/07 02:38:26;;;;;;;9.00;2.20;;;15.90;84.30;;;;;;5047963;28;20041;-65
2023/08/07 02:40:51;;;;;;;11.02;2.95;;;15.90;84.40;;;;;;5044483;28;20142;-65
2023/08/07 02:43:17;;;;;;;7.82;2.20;;;15.90;84.40;;;;;;5053368;28;20063;-65
2023/08/07 02:45:43;;;;;;;7.88;2.70;;;15.90;84.50;;;;;;5044263;28;20454;-65
2023/08/07 02:48:08;;;;;;;9.32;2.85;;;15.80;84.50;;;;;;5052270;28;20017;-65
2023/08/07 02:50:35;;;;;;;7.47;2.75;;;15.80;84.60;;;;;;5044723;28;20057;-65
2023/08/07 02:53:02;;;;;;;8.57;2.28;;;15.80;84.70;;;;;;5049125;28;20508;-65
2023/08/07 02:55:28;;;;;;;9.20;3.03;;;15.90;84.80;;;;;;5035741;28;20124;-65
2023/08/07 02:57:53;;;;;;;8.38;2.20;;;15.80;84.80;;;;;;5035871;28;20116;-65
2023/08/07 03:00:19;;;;;;;13.40;2.38;;;15.90;84.90;;;;;;5052915;28;20382;-65
2023/08/07 03:02:45;;;;;;;9.77;2.75;;;15.90;84.90;;;;;;5047573;28;20473;-65
2023/08/07 03:05:11;;;;;;;9.40;2.80;;;15.90;85.00;;;;;;5033549;28;20131;-65
2023/08/07 03:07:37;;;;;;;11.57;3.20;;;15.90;84.90;;;;;;5051006;28;20116;-65
2023/08/07 03:10:04;;;;;;;8.75;2.47;;;15.90;84.90;;;;;;5052614;28;20021;-65
2023/08/07 03:12:29;;;;;;;8.00;2.30;;;15.90;84.90;;;;;;5050200;28;20052;-65
2023/08/07 03:14:55;;;;;;;9.77;2.92;;;15.90;84.90;;;;;;5045998;28;20403;-65
2023/08/07 03:17:21;;;;;;;6.05;2.33;;;15.90;84.90;;;;;;5039160;28;20322;-65
2023/08/07 03:19:47;;;;;;;8.30;2.72;;;15.90;84.90;;;;;;5051432;28;20040;-65
2023/08/07 03:22:13;;;;;;;9.70;2.55;;;15.90;84.90;;;;;;5043549;28;20033;-65
2023/08/07 03:24:38;;;;;;;8.05;2.40;;;15.80;84.90;;;;;;5039067;28;20057;-65
2023/08/07 03:27:04;;;;;;;8.63;2.92;;;15.90;85.00;;;;;;5065294;28;20025;-65
2023/08/07 03:29:30;;;;;;;11.15;2.42;;;15.90;85.00;;;;;;5040546;28;20022;-65
2023/08/07 03:31:57;;;;;;;7.40;2.65;;;15.80;85.00;;;;;;5054279;28;20096;-65
2023/08/07 03:34:23;;;;;;;7.43;2.40;;;15.90;85.00;;;;;;5050427;28;20021;-65
2023/08/07 03:36:48;;;;;;;6.45;2.17;;;15.90;85.00;;;;;;5056597;28;20033;-65
2023/08/07 03:39:14;;;;;;;8.90;2.65;;;15.90;85.00;;;;;;5038110;28;20029;-65
2023/08/07 03:41:40;;;;;;;6.40;2.63;;;15.80;85.00;;;;;;5055677;28;20043;-65
2023/08/07 03:44:07;;;;;;;8.60;2.55;;;15.80;85.00;;;;;;5051821;28;20025;-65
2023/08/07 03:46:33;;;;;;;8.18;2.53;;;15.80;85.10;;;;;;5046834;28;20434;-65
2023/08/07 03:48:59;;;;;;;8.27;2.33;;;15.90;85.20;;;;;;5056069;28;20029;-65
2023/08/07 03:51:26;;;;;;;7.10;2.13;;;15.90;85.10;;;;;;5056073;28;20037;-65
2023/08/07 03:53:53;;;;;;;7.43;2.20;;;15.90;85.10;;;;;;5054792;28;20040;-65
2023/08/07 03:56:20;;;;;;;7.13;2.40;;;15.90;85.00;;;;;;5053436;28;20059;-65
2023/08/07 03:58:46;;;;;;;8.68;2.65;;;15.80;85.00;;;;;;5046796;28;20068;-65
2023/08/07 04:01:12;;;;;;;7.05;2.10;;;15.80;85.10;;;;;;5055177;28;20033;-65
2023/08/07 04:03:39;;;;;;;11.55;3.00;;;15.80;85.00;;;;;;5049020;28;20362;-65
2023/08/07 04:06:05;;;;;;;7.28;2.10;;;15.80;85.00;;;;;;5053650;28;20048;-65
2023/08/07 04:08:31;;;;;;;7.07;2.42;;;15.80;85.00;;;;;;5047808;28;20438;-65
2023/08/07 04:11:01;;;;;;;7.65;2.33;;;15.80;85.00;;;;;;5056141;28;20021;-65
2023/08/07 04:13:27;;;;;;;6.25;2.22;;;15.80;85.10;;;;;;5054575;28;20053;-65
2023/08/07 04:15:53;;;;;;;6.22;2.13;;;15.80;85.80;;;;;;5053892;28;20178;-65
2023/08/07 04:18:19;;;;;;;9.55;2.85;;;15.80;85.10;;;;;;5031616;28;20169;-65
2023/08/07 04:20:53;;;;;;;8.45;2.42;;;15.70;85.10;;;;;;5052619;28;20045;-65
2023/08/07 04:23:20;;;;;;;6.40;2.00;;;15.80;85.20;;;;;;5050290;28;20064;-65
2023/08/07 04:25:47;;;;;;;7.32;2.05;;;15.80;85.20;;;;;;5038101;28;20033;-65
2023/08/07 04:28:13;;;;;;;8.20;2.40;;;15.80;85.20;;;;;;5045265;28;20025;-65
2023/08/07 04:30:40;;;;;;;6.03;1.80;;;15.80;85.20;;;;;;5054259;28;20124;-65
2023/08/07 04:33:06;;;;;;;7.50;1.90;;;15.80;85.20;;;;;;5055617;28;20074;-65
2023/08/07 04:35:31;;;;;;;8.55;2.38;;;15.80;85.20;;;;;;5047013;28;20458;-65
2023/08/07 04:37:57;;;;;;;5.88;2.00;;;15.80;85.20;;;;;;5046998;28;20025;-66
2023/08/07 04:40:23;;;;;;;5.82;2.08;;;15.80;85.20;;;;;;5055045;28;20037;-66
2023/08/07 04:42:49;;;;;;;9.30;2.22;;;15.80;85.20;;;;;;5051608;28;20064;-66
2023/08/07 04:45:15;;;;;;;5.95;2.03;;;15.80;85.30;;;;;;5047749;28;20033;-67
2023/08/07 04:47:41;;;;;;;6.38;1.75;;;15.80;85.30;;;;;;5044780;28;20361;-67
2023/08/07 04:50:08;;;;;;;6.32;1.80;;;15.80;85.30;;;;;;5046322;28;20033;-66
2023/08/07 04:52:34;;;;;;;6.05;1.70;;;15.80;85.30;;;;;;5044506;28;20025;-67
2023/08/07 04:55:00;;;;;;;5.65;1.70;;;15.80;85.40;;;;;;5046070;28;20029;-67
2023/08/07 04:57:26;;;;;;;5.95;2.10;;;15.80;85.30;;;;;;5044227;28;20117;-67
2023/08/07 04:59:52;;;;;;;7.38;1.75;;;15.80;85.30;;;;;;5048013;28;20028;-67
2023/08/07 05:02:18;;;;;;;6.45;1.80;;;15.90;85.40;;;;;;5053321;28;20029;-66
2023/08/07 05:04:44;;;;;;;6.05;1.95;;;15.90;85.40;;;;;;5048506;28;20119;-67
2023/08/07 05:07:10;;;;;;;8.30;1.92;;;15.90;85.30;;;;;;5041160;28;20111;-67
2023/08/07 05:09:36;;;;;;;6.35;1.92;;;15.90;85.20;;;;;;5046729;28;20155;-66
2023/08/07 05:12:01;;;;;;;6.00;2.13;;;15.90;85.20;;;;;;5048275;28;20473;-66
2023/08/07 05:14:29;;;;;;;5.95;1.98;;;15.90;85.30;;;;;;5038032;28;20107;-66
2023/08/07 05:16:55;;;;;;;8.00;2.15;;;15.90;85.30;;;;;;5058365;28;20175;-66
2023/08/07 05:19:21;;;;;;;5.18;2.10;;;15.90;85.30;;;;;;5045223;28;20520;-66
2023/08/07 05:21:50;;;;;;;8.63;2.50;;;15.90;85.40;;;;;;5052081;28;20043;-65
2023/08/07 05:24:17;;;;;;;7.38;2.38;;;15.90;85.40;;;;;;5041873;28;20370;-66
2023/08/07 05:26:43;;;;;;;7.88;2.45;;;15.90;85.40;;;;;;5051820;28;20032;-66
2023/08/07 05:29:08;;;;;;;8.60;2.42;;;15.90;85.40;;;;;;5048213;28;20017;-66
2023/08/07 05:31:34;;;;;;;9.77;2.70;;;15.90;85.50;;;;;;5045407;28;20017;-66
2023/08/07 05:34:00;;;;;;;6.88;2.17;;;15.90;86.20;;;;;;5045762;28;20465;-66
2023/08/07 05:36:26;;;;;;;6.45;2.17;;;15.90;85.60;;;;;;5053091;28;20163;-66
2023/08/07 05:38:52;;;;;;;6.65;2.45;;;15.90;85.70;;;;;;5055561;28;20025;-66
2023/08/07 05:41:17;;;;;;;6.80;2.63;;;15.90;85.70;;;;;;5047910;28;20041;-66
2023/08/07 05:43:45;;;;;;;10.05;2.83;;;15.90;85.70;;;;;;5045654;28;20036;-65
2023/08/07 05:46:11;;;;;;;7.30;2.30;;;15.90;85.70;;;;;;5042809;28;20026;-67
2023/08/07 05:48:36;;;;;;;12.73;2.58;;;15.90;85.70;;;;;;5051995;28;20487;-67
2023/08/07 05:51:02;;;;;;;8.30;2.90;;;16.00;85.70;;;;;;5045515;28;20088;-66
2023/08/07 05:53:28;;;;;;;8.48;2.42;;;16.00;85.70;;;;;;5055158;28;20035;-66
2023/08/07 05:55:54;;;;;;;10.00;2.58;;;16.00;85.60;;;;;;5054774;28;20032;-67
2023/08/07 05:58:20;;;;;;;10.20;2.65;;;16.10;85.70;;;;;;5037671;28;20469;-67
2023/08/07 06:00:46;;;;;;;8.35;2.53;;;16.00;85.50;;;;;;5049623;28;20040;-66
2023/08/07 06:03:12;;;;;;;8.63;2.75;;;16.00;85.60;;;;;;5053659;28;20360;-67
2023/08/07 06:05:38;;;;;;;9.32;2.58;;;16.00;85.70;;;;;;5052432;28;20037;-66
2023/08/07 06:08:04;;;;;;;10.57;3.05;;;16.10;85.70;;;;;;5056101;28;20021;-66
2023/08/07 06:10:30;;;;;;;11.07;2.80;;;16.20;85.70;;;;;;5055233;28;20028;-66
2023/08/07 06:12:56;;;;;;;6.85;2.78;;;16.10;85.50;;;;;;5055293;28;20080;-67
2023/08/07 06:15:21;;;;;;;9.68;2.75;;;16.10;85.60;;;;;;5043993;28;20028;-67
2023/08/07 06:17:47;;;;;;;7.32;2.67;;;16.10;85.50;;;;;;5051825;28;20454;-67
2023/08/07 06:20:14;;;;;;;8.85;2.58;;;16.10;85.60;;;;;;5040828;28;20433;-67
2023/08/07 06:22:40;;;;;;;7.35;2.80;;;16.10;85.60;;;;;;5052595;28;20037;-67
2023/08/07 06:25:07;;;;;;;9.55;2.58;;;16.20;85.60;;;;;;5053336;28;20036;-66
2023/08/07 06:27:32;;;;;;;11.38;3.13;;;16.20;85.50;;;;;;5051641;28;20067;-67
2023/08/07 06:29:59;;;;;;;8.35;2.70;;;16.30;85.40;;;;;;5048176;28;20128;-67
2023/08/07 06:32:25;;;;;;;7.15;2.92;;;16.40;85.30;;;;;;5053236;28;20045;-66
2023/08/07 06:34:52;;;;;;;9.73;2.45;;;16.50;85.10;;;;;;5047909;28;20037;-67
2023/08/07 06:37:17;;;;;;;9.02;2.90;;;16.50;84.90;;;;;;5056421;28;20060;-67
2023/08/07 06:39:43;;;;;;;9.35;2.67;;;16.50;84.80;;;;;;5045714;28;20110;-67
2023/08/07 06:42:09;;;;;;;10.32;3.30;;;16.50;84.80;;;;;;5046484;28;20083;-68
2023/08/07 06:44:35;;;;;;;10.80;2.80;;;16.50;84.90;;;;;;5047880;28;20021;-67
2023/08/07 06:47:01;;;;;;;10.15;3.33;;;16.60;84.90;;;;;;5045196;28;20020;-67
2023/08/07 06:49:26;;;;;;;9.60;2.75;;;16.70;84.90;;;;;;5050695;28;20024;-67
2023/08/07 06:51:52;;;;;;;12.60;3.55;;;16.70;84.70;;;;;;5048437;28;20144;-67
2023/08/07 06:54:18;;;;;;;6.15;2.65;;;16.80;84.50;;;;;;5045586;28;20526;-67
2023/08/07 06:56:44;;;;;;;9.30;3.03;;;16.90;84.40;;;;;;5043876;28;20035;-65
2023/08/07 06:59:10;;;;;;;17.40;3.10;;;17.00;84.30;;;;;;5049531;28;20036;-66
2023/08/07 07:01:36;;;;;;;9.70;3.00;;;17.10;84.10;;;;;;5047105;28;20013;-66
2023/08/07 07:04:02;;;;;;;11.52;3.10;;;17.10;84.00;;;;;;5044652;28;20029;-66
2023/08/07 07:06:27;;;;;;;11.05;3.33;;;17.20;84.00;;;;;;5042163;28;20029;-66
2023/08/07 07:08:54;;;;;;;10.02;2.80;;;17.20;83.90;;;;;;5045725;28;20032;-67
2023/08/07 07:11:22;;;;;;;9.80;2.83;;;17.20;83.80;;;;;;5050537;28;20049;-67
2023/08/07 07:13:49;;;;;;;9.70;2.83;;;17.30;83.80;;;;;;5045485;28;20031;-67
2023/08/07 07:16:15;;;;;;;8.15;2.40;;;17.40;83.60;;;;;;5048902;28;20028;-67
2023/08/07 07:18:40;;;;;;;9.93;2.55;;;17.40;83.40;;;;;;5049959;28;20033;-67
2023/08/07 07:21:06;;;;;;;8.13;2.42;;;17.50;83.20;;;;;;5044425;28;20135;-67
2023/08/07 07:23:32;;;;;;;9.52;2.50;;;17.60;83.00;;;;;;5051017;28;20147;-67
2023/08/07 07:25:58;;;;;;;8.70;2.60;;;17.70;82.90;;;;;;5049187;28;20049;-67
2023/08/07 07:28:23;;;;;;;6.65;2.08;;;17.70;82.60;;;;;;5044759;28;20068;-67
2023/08/07 07:30:50;;;;;;;8.00;3.28;;;17.80;82.50;;;;;;5048295;28;20427;-66
2023/08/07 07:33:16;;;;;;;9.95;3.17;;;17.80;82.40;;;;;;5048092;28;20037;-66
2023/08/07 07:35:42;;;;;;;11.65;3.13;;;17.80;82.30;;;;;;5040453;28;20045;-66
2023/08/07 07:38:08;;;;;;;10.32;2.97;;;17.90;82.30;;;;;;5042986;28;20049;-66
2023/08/07 07:40:37;;;;;;;6.80;2.67;;;17.80;82.10;;;;;;5041467;28;20695;-66
2023/08/07 07:43:03;;;;;;;9.07;3.00;;;17.80;82.10;;;;;;5047346;28;20580;-66
2023/08/07 07:45:29;;;;;;;9.20;2.75;;;17.70;82.10;;;;;;5048669;28;20055;-66
2023/08/07 07:47:55;;;;;;;10.85;3.35;;;17.70;82.30;;;;;;5021989;28;20052;-65
2023/08/07 07:50:21;;;;;;;7.85;2.70;;;18.00;82.10;;;;;;5049097;28;20323;-65
2023/08/07 07:52:47;;;;;;;8.73;2.50;;;18.30;81.40;;;;;;5031978;28;20126;-65
2023/08/07 07:55:13;;;;;;;13.00;3.30;;;18.70;80.50;;;;;;5028140;28;20032;-65
2023/08/07 07:57:40;;;;;;;10.23;2.85;;;18.70;80.00;;;;;;5051073;28;20048;-65
2023/08/07 08:00:10;;;;;;;10.48;2.90;;;18.60;80.00;;;;;;5051979;28;20045;-65
2023/08/07 08:02:37;;;;;;;9.20;2.85;;;18.50;80.20;;;;;;5049083;28;20029;-65
2023/08/07 08:05:03;;;;;;;8.18;2.80;;;18.40;80.50;;;;;;5031713;28;20166;-65
2023/08/07 08:07:31;;;;;;;9.30;3.15;;;18.30;80.70;;;;;;5030290;28;20017;-65
2023/08/07 08:09:57;;;;;;;10.63;2.92;;;18.10;80.80;;;;;;5046880;28;20048;-65
2023/08/07 08:12:23;;;;;;;8.32;2.90;;;18.00;80.60;;;;;;5042786;28;20025;-65
2023/08/07 08:14:49;;;;;;;7.68;2.83;;;17.90;80.60;;;;;;5043266;28;20029;-65
2023/08/07 08:17:15;;;;;;;6.03;2.72;;;17.80;80.60;;;;;;5051455;28;20111;-65
2023/08/07 08:19:40;;;;;;;9.10;3.03;;;17.80;80.50;;;;;;5054849;28;20472;-65
2023/08/07 08:22:06;;;;;;;8.80;3.33;;;17.80;80.30;;;;;;5050623;28;20037;-65
2023/08/07 08:24:32;;;;;;;8.93;2.60;;;17.90;80.10;;;;;;5016424;28;20036;-65
2023/08/07 08:26:58;;;;;;;10.02;2.78;;;18.10;79.50;;;;;;5012918;28;20100;-65
2023/08/07 08:29:25;;;;;;;13.27;2.78;;;18.50;78.70;;;;;;5012860;28;20032;-66
2023/08/07 08:31:53;;;;;;;9.98;2.80;;;18.90;77.90;;;;;;5028768;28;20031;-66
2023/08/07 08:34:19;;;;;;;8.98;3.10;;;19.20;77.10;;;;;;5029615;28;20022;-66
2023/08/07 08:36:45;;;;;;;11.13;3.50;;;19.60;76.50;;;;;;5032364;28;20508;-66
2023/08/07 08:39:10;;;;;;;11.20;2.90;;;19.80;75.70;;;;;;5030191;28;20077;-66
2023/08/07 08:41:36;;;;;;;7.40;2.40;;;20.00;75.20;;;;;;5034625;28;20025;-66
2023/08/07 08:44:06;;;;;;;9.88;2.78;;;20.20;74.60;;;;;;5031372;28;20022;-66
2023/08/07 08:46:33;;;;;;;8.95;2.75;;;20.30;73.80;;;;;;5028785;28;20048;-66
2023/08/07 08:49:01;;;;;;;9.32;2.80;;;20.40;73.50;;;;;;5012471;28;20452;-66
2023/08/07 08:51:27;;;;;;;13.15;3.45;;;20.40;73.10;;;;;;5026069;28;20491;-66
2023/08/07 08:53:56;;;;;;;9.25;2.70;;;20.20;73.20;;;;;;5011021;28;20045;-66
2023/08/07 08:56:23;;;;;;;10.88;3.65;;;19.90;73.30;;;;;;5029640;28;20030;-66
2023/08/07 08:58:52;;;;;;;10.18;2.83;;;19.60;73.70;;;;;;5032151;28;20461;-66
2023/08/07 09:01:18;;;;;;;9.23;3.00;;;19.30;74.40;;;;;;5030333;28;20033;-66
2023/08/07 09:03:45;;;;;;;7.25;2.75;;;19.00;75.00;;;;;;5017419;28;21553;-66
2023/08/07 09:06:13;;;;;;;7.97;2.80;;;18.80;75.60;;;;;;5031673;28;20371;-66
2023/08/07 09:08:42;;;;;;;9.98;3.17;;;18.80;76.10;;;;;;5032047;28;20022;-67
2023/08/07 09:11:08;;;;;;;7.38;3.03;;;18.90;76.10;;;;;;5031643;28;20025;-65
2023/08/07 09:13:37;;;;;;;7.63;2.75;;;19.00;76.00;;;;;;5026773;28;20029;-65
2023/08/07 09:16:06;;;;;;;10.85;3.17;;;19.20;75.80;;;;;;5024084;28;20121;-65
2023/08/07 09:18:33;;;;;;;12.30;3.25;;;19.40;75.50;;;;;;5026991;28;20025;-65
2023/08/07 09:20:59;;;;;;;10.77;3.38;;;19.70;75.20;;;;;;5042820;28;20140;-65
2023/08/07 09:23:26;;;;;;;9.15;2.58;;;19.90;74.60;;;;;;5052432;28;20032;-65
2023/08/07 09:26:05;;;;;;;9.35;2.88;;;20.20;74.20;;;;;;5045088;28;20033;-66
2023/08/07 09:28:32;;;;;;;9.93;2.97;;;20.50;73.60;;;;;;5050259;28;20025;-65
2023/08/07 09:30:58;;;;;;;8.85;3.17;;;20.70;73.00;;;;;;5052199;28;20040;-65
2023/08/07 09:33:29;;;;;;;8.10;2.50;;;20.80;72.60;;;;;;5042896;28;20382;-67
2023/08/07 09:35:59;;;;;;;8.93;2.78;;;21.00;72.10;;;;;;5047203;28;20112;-68
2023/08/07 09:38:32;;;;;;;10.90;2.85;;;21.30;71.60;;;;;;5031684;28;20037;-68
2023/08/07 09:40:59;;;;;;;9.38;2.70;;;21.20;71.10;;;;;;5050363;28;20036;-68
2023/08/07 09:43:25;;;;;;;7.47;2.55;;;21.00;71.20;;;;;;5050622;28;20024;-68
2023/08/07 09:45:51;;;;;;;7.65;2.78;;;20.70;71.60;;;;;;5023979;28;20020;-69
2023/08/07 09:48:25;;;;;;;9.07;2.83;;;20.50;72.10;;;;;;5041799;28;20036;-68
2023/08/07 09:50:51;;;;;;;9.77;2.60;;;20.30;72.30;;;;;;5042557;28;20030;-68
2023/08/07 09:53:17;;;;;;;7.65;2.50;;;20.20;72.50;;;;;;5031003;28;20025;-68
2023/08/07 09:55:43;;;;;;;8.23;2.67;;;20.40;72.10;;;;;;5021788;28;20173;-67
2023/08/07 09:58:13;;;;;;;7.70;2.85;;;20.60;71.80;;;;;;5053394;28;20029;-68
2023/08/07 10:00:41;;;;;;;6.38;2.30;;;20.90;71.20;;;;;;5044701;28;20580;-68
2023/08/07 10:03:07;;;;;;;9.32;2.55;;;21.20;70.50;;;;;;5044062;28;20044;-68
2023/08/07 10:05:34;;;;;;;6.53;2.45;;;21.50;69.80;;;;;;5031753;28;20385;-68
2023/08/07 10:08:00;;;;;;;12.82;3.08;;;21.70;68.90;;;;;;5033704;28;20028;-67
2023/08/07 10:10:26;;;;;;;7.15;2.15;;;21.90;68.40;;;;;;5044475;28;20083;-67
2023/08/07 10:12:53;;;;;;;9.93;2.97;;;22.00;67.80;;;;;;5063236;28;20034;-67
2023/08/07 10:15:19;;;;;;;7.05;2.45;;;22.10;67.30;;;;;;5028371;28;20035;-67
2023/08/07 10:17:46;;;;;;;7.78;2.22;;;22.30;66.90;;;;;;5027212;28;20041;-67
2023/08/07 10:20:12;;;;;;;8.15;2.70;;;22.30;66.50;;;;;;5030894;28;20040;-67
2023/08/07 10:22:39;;;;;;;6.47;2.35;;;22.10;66.10;;;;;;5046396;28;20385;-67
2023/08/07 10:25:06;;;;;;;6.75;2.60;;;21.70;66.10;;;;;;5040832;28;20043;-67
2023/08/07 10:27:37;;;;;;;6.85;2.38;;;21.30;66.40;;;;;;5051939;28;20036;-67
2023/08/07 10:30:07;;;;;;;7.55;2.28;;;21.10;66.80;;;;;;5051366;28;20104;-68
2023/08/07 10:32:34;;;;;;;8.13;2.20;;;21.00;66.90;;;;;;5034356;28;20124;-67
2023/08/07 10:35:04;;;;;;;8.80;2.88;;;21.10;66.90;;;;;;5048861;28;20055;-68
2023/08/07 10:37:44;;;;;;;8.48;2.28;;;21.00;66.50;;;;;;5050778;28;20033;-67
2023/08/07 10:40:12;;;;;;;8.45;2.60;;;20.90;66.30;;;;;;5049427;28;20033;-67
2023/08/07 10:43:11;;;;;;;10.38;2.75;;;20.80;66.70;;;;;;5053285;28;20029;-67
2023/08/07 10:45:38;;;;;;;12.40;2.42;;;20.70;66.60;;;;;;5055018;28;20115;-67
2023/08/07 10:48:10;;;;;;;9.32;2.42;;;20.80;66.60;;;;;;5052811;28;20044;-67
2023/08/07 10:50:57;;;;;;;9.55;2.53;;;20.70;66.30;;;;;;5053474;28;20438;-67
2023/08/07 10:53:34;;;;;;;7.10;2.42;;;20.50;66.50;;;;;;5055015;28;20032;-67
2023/08/07 10:56:07;;;;;;;7.35;2.63;;;20.40;66.70;;;;;;5053483;28;20017;-65
2023/08/07 10:58:37;;;;;;;8.98;2.90;;;20.30;66.90;;;;;;5054959;28;20057;-65
2023/08/07 11:01:26;;;;;;;7.45;3.22;;;20.30;67.50;;;;;;5053469;28;20035;-64
2023/08/07 11:04:00;;;;;;;6.30;2.10;;;20.20;66.90;;;;;;5043196;28;20453;-65
2023/08/07 11:06:31;;;;;;;9.77;2.70;;;20.20;67.20;;;;;;5053468;28;20112;-65
2023/08/07 11:08:58;;;;;;;8.63;2.25;;;20.40;67.10;;;;;;5054126;28;20044;-65
2023/08/07 11:11:24;;;;;;;9.80;3.00;;;20.80;66.70;;;;;;5046806;28;20090;-65
2023/08/07 11:13:50;;;;;;;5.68;2.05;;;21.10;66.10;;;;;;5054218;28;20032;-65
2023/08/07 11:16:17;;;;;;;7.70;2.60;;;21.40;65.00;;;;;;5054127;28;20043;-65
2023/08/07 11:18:43;;;;;;;6.00;2.30;;;21.50;64.40;;;;;;5045265;28;20167;-66
2023/08/07 11:21:13;;;;;;;7.53;2.50;;;21.70;64.00;;;;;;5047346;28;20098;-66
2023/08/07 11:23:40;;;;;;;9.27;2.88;;;21.80;63.60;;;;;;5054227;28;20079;-66
2023/08/07 11:26:07;;;;;;;8.95;2.47;;;22.00;63.20;;;;;;5036651;28;20128;-66
2023/08/07 11:28:34;;;;;;;9.13;2.78;;;22.20;62.90;;;;;;5054370;28;20024;-66
2023/08/07 11:31:00;;;;;;;6.93;2.20;;;22.30;62.40;;;;;;5051959;28;20033;-66
2023/08/07 11:33:27;;;;;;;6.90;1.95;;;22.20;62.10;;;;;;5050491;28;20167;-66
2023/08/07 11:35:54;;;;;;;6.63;2.17;;;22.00;61.90;;;;;;5053187;28;20159;-66
2023/08/07 11:38:39;;;;;;;8.27;2.58;;;21.70;62.10;;;;;;5054171;28;20032;-66
2023/08/07 11:41:06;;;;;;;6.03;2.42;;;21.40;62.40;;;;;;5050923;28;20397;-65
2023/08/07 11:43:33;;;;;;;6.32;1.95;;;21.20;63.00;;;;;;5044031;28;20086;-66
2023/08/07 11:46:01;;;;;;;8.05;2.30;;;21.20;62.90;;;;;;5045418;28;20029;-66
2023/08/07 11:48:29;;;;;;;5.63;2.10;;;21.10;62.90;;;;;;5029667;28;20033;-66
2023/08/07 11:50:55;;;;;;;7.72;2.20;;;21.00;63.00;;;;;;5045642;28;20017;-66
2023/08/07 11:53:23;;;;;;;7.65;2.50;;;21.10;63.00;;;;;;5048384;28;20098;-66
2023/08/07 11:56:00;;;;;;;7.60;2.55;;;21.00;62.90;;;;;;5031104;28;20028;-66
2023/08/07 11:58:27;;;;;;;8.95;2.88;;;20.90;62.70;;;;;;5045474;28;20032;-66
2023/08/07 12:00:54;;;;;;;7.95;2.65;;;20.80;63.00;;;;;;5051080;28;20025;-66
2023/08/07 12:03:36;;;;;;;7.60;2.40;;;20.60;63.00;;;;;;5057879;28;20063;-66
2023/08/07 12:06:04;;;;;;;6.30;2.00;;;20.40;63.60;;;;;;5048699;28;20025;-65
2023/08/07 12:08:40;;;;;;;7.15;2.45;;;20.40;63.70;;;;;;5051917;28;20330;-65
2023/08/07 12:11:10;;;;;;;8.95;2.30;;;20.60;63.30;;;;;;5056988;28;20402;-65
2023/08/07 12:13:40;;;;;;;5.93;2.10;;;20.70;62.90;;;;;;5044065;28;20071;-65
2023/08/07 12:16:08;;;;;;;8.00;2.55;;;20.90;62.30;;;;;;5057979;28;20064;-65
2023/08/07 12:18:38;;;;;;;6.85;2.10;;;21.00;62.20;;;;;;5048452;28;20037;-66
2023/08/07 12:21:06;;;;;;;5.43;1.73;;;21.10;62.00;;;;;;5051524;28;20473;-66
2023/08/07 12:23:34;;;;;;;6.45;1.90;;;21.20;61.80;;;;;;5060558;28;20454;-66
2023/08/07 12:26:00;;;;;;;8.25;2.15;;;21.30;61.70;;;;;;5055309;28;20040;-66
2023/08/07 12:28:26;;;;;;;7.47;2.10;;;21.30;61.60;;;;;;5051245;28;20112;-66
2023/08/07 12:30:52;;;;;;;9.85;2.40;;;21.40;61.40;;;;;;5053839;28;20117;-66
2023/08/07 12:33:19;;;;;;;7.88;2.33;;;21.50;61.20;;;;;;5051581;28;20037;-66
2023/08/07 12:35:45;;;;;;;8.32;2.60;;;21.60;61.10;;;;;;5044311;28;20040;-66
2023/08/07 12:38:13;;;;;;;7.68;2.42;;;21.70;61.20;;;;;;5047204;28;20424;-66
2023/08/07 12:40:39;;;;;;;6.93;2.17;;;21.70;61.10;;;;;;5047239;28;20481;-67
2023/08/07 12:43:06;;;;;;;7.22;2.60;;;21.70;61.20;;;;;;5044529;28;20211;-67
2023/08/07 12:45:32;;;;;;;7.32;2.35;;;21.70;61.20;;;;;;5053374;28;20029;-67